createdAt,value
2019-04-10T00:01:20.818Z,12.23
2019-04-10T00:03:53.060Z,12.25
2019-04-10T00:06:25.810Z,12.18
2019-04-10T00:08:58.839Z,12.70
2019-04-10T00:11:31.160Z,12.75
2019-04-10T00:14:03.995Z,12.82
2019-04-10T00:16:36.849Z,11.73
2019-04-10T00:19:09.100Z,12.43
2019-04-10T00:21:41.821Z,12.75
2019-04-10T00:24:14.070Z,12.40
2019-04-10T00:26:46.332Z,12.70
2019-04-10T00:29:18.571Z,12.45
2019-04-10T00:31:50.847Z,12.25
2019-04-10T00:34:23.334Z,11.90
2019-04-10T00:36:55.649Z,11.60
2019-04-10T00:39:28.677Z,11.95
2019-04-10T00:42:00.997Z,11.97
2019-04-10T00:44:33.267Z,11.03
2019-04-10T00:47:06.517Z,12.07
2019-04-10T00:49:39.899Z,12.78
2019-04-10T00:52:12.273Z,12.73
2019-04-10T00:54:44.507Z,11.97
2019-04-10T00:57:16.996Z,12.98
2019-04-10T00:59:49.291Z,11.87
2019-04-10T01:02:22.496Z,11.70
2019-04-10T01:04:55.089Z,12.82
2019-04-10T01:07:36.525Z,12.40
2019-04-10T01:10:02.049Z,12.65
2019-04-10T01:12:34.507Z,12.55
2019-04-10T01:15:06.879Z,12.50
2019-04-10T01:17:40.012Z,12.80
2019-04-10T01:20:13.627Z,12.68
2019-04-10T01:22:45.947Z,11.65
2019-04-10T01:25:18.671Z,11.93
2019-04-10T01:27:51.966Z,13.05
2019-04-10T01:30:24.421Z,12.13
2019-04-10T01:32:56.659Z,13.00
2019-04-10T01:35:29.919Z,13.45
2019-04-10T01:38:04.629Z,12.93
2019-04-10T01:40:37.234Z,13.60
2019-04-10T01:43:13.281Z,14.00
2019-04-10T01:45:43.964Z,14.03
2019-04-10T01:48:17.436Z,14.47
2019-04-10T01:50:50.735Z,13.98
2019-04-10T01:53:23.797Z,14.00
2019-04-10T01:55:56.127Z,13.88
2019-04-10T01:58:29.348Z,13.83
2019-04-10T02:01:10.230Z,13.38
2019-04-10T02:03:42.543Z,14.33
2019-04-10T02:06:14.903Z,15.23
2019-04-10T02:08:47.817Z,14.83
2019-04-10T02:11:20.158Z,13.95
2019-04-10T02:13:52.444Z,15.58
2019-04-10T02:16:25.578Z,15.35
2019-04-10T02:18:58.032Z,15.63
2019-04-10T02:21:30.285Z,14.85
2019-04-10T02:24:02.939Z,15.40
2019-04-10T02:26:35.960Z,14.60
2019-04-10T02:29:09.239Z,14.25
2019-04-10T02:31:41.509Z,14.00
2019-04-10T02:34:14.946Z,13.78
2019-04-10T02:36:48.617Z,14.15
2019-04-10T02:39:31.466Z,14.07
2019-04-10T02:41:56.189Z,13.98
2019-04-10T02:44:30.490Z,14.20
2019-04-10T02:47:04.207Z,14.23
2019-04-10T02:49:38.567Z,15.32
2019-04-10T02:52:11.536Z,14.47
2019-04-10T02:54:46.003Z,14.18
2019-04-10T02:57:19.459Z,14.98
2019-04-10T02:59:53.819Z,14.55
2019-04-10T03:02:26.761Z,15.50
2019-04-10T03:04:59.492Z,14.73
2019-04-10T03:07:32.055Z,14.63
2019-04-10T03:10:18.374Z,15.00
2019-04-10T03:12:41.875Z,15.45
2019-04-10T03:15:15.036Z,15.25
2019-04-10T03:17:48.345Z,15.17
2019-04-10T03:20:20.754Z,13.83
2019-04-10T03:22:53.428Z,13.60
2019-04-10T03:25:26.637Z,15.38
2019-04-10T03:27:58.899Z,14.73
2019-04-10T03:30:32.502Z,15.40
2019-04-10T03:33:11.413Z,14.87
2019-04-10T03:35:43.067Z,15.55
2019-04-10T03:38:16.177Z,14.87
2019-04-10T03:40:48.470Z,13.70
2019-04-10T03:43:21.554Z,14.95
2019-04-10T03:45:55.037Z,15.38
2019-04-10T03:48:27.389Z,15.70
2019-04-10T03:51:00.512Z,16.23
2019-04-10T03:53:34.002Z,14.00
2019-04-10T03:56:07.492Z,14.38
2019-04-10T03:58:39.868Z,14.93
2019-04-10T04:01:12.157Z,13.75
2019-04-10T04:03:44.744Z,14.85
2019-04-10T04:06:17.553Z,14.35
2019-04-10T04:09:01.692Z,13.80
2019-04-10T04:11:23.927Z,14.13
2019-04-10T04:13:56.166Z,14.37
2019-04-10T04:16:28.422Z,14.95
2019-04-10T04:19:01.678Z,13.93
2019-04-10T04:21:34.285Z,13.80
2019-04-10T04:24:07.120Z,12.95
2019-04-10T04:26:39.491Z,13.68
2019-04-10T04:29:11.891Z,12.70
2019-04-10T04:31:44.168Z,13.35
2019-04-10T04:34:16.404Z,13.60
2019-04-10T04:36:49.599Z,13.65
2019-04-10T04:39:26.738Z,12.10
2019-04-10T04:41:56.356Z,13.45
2019-04-10T04:44:29.223Z,13.90
2019-04-10T04:47:01.512Z,13.25
2019-04-10T04:49:33.784Z,13.35
2019-04-10T04:52:06.938Z,12.78
2019-04-10T04:54:39.411Z,13.15
2019-04-10T04:57:12.586Z,13.38
2019-04-10T04:59:45.180Z,14.03
2019-04-10T05:02:17.773Z,13.68
2019-04-10T05:04:50.089Z,13.60
2019-04-10T05:07:22.525Z,13.90
2019-04-10T05:09:55.852Z,14.23
2019-04-10T05:12:28.753Z,14.20
2019-04-10T05:15:00.993Z,13.58
2019-04-10T05:17:33.271Z,13.25
2019-04-10T05:20:05.655Z,12.78
2019-04-10T05:22:38.004Z,14.30
2019-04-10T05:25:11.140Z,13.32
2019-04-10T05:27:43.510Z,14.47
2019-04-10T05:30:16.429Z,13.10
2019-04-10T05:32:49.338Z,13.95
2019-04-10T05:35:21.696Z,14.15
2019-04-10T05:37:54.127Z,13.40
2019-04-10T05:40:26.581Z,13.10
2019-04-10T05:42:59.578Z,12.95
2019-04-10T05:45:31.912Z,13.22
2019-04-10T05:48:04.142Z,12.95
2019-04-10T05:50:36.374Z,13.65
2019-04-10T05:53:09.836Z,12.65
2019-04-10T05:55:42.101Z,13.22
2019-04-10T05:58:15.403Z,13.38
2019-04-10T06:00:47.800Z,13.03
2019-04-10T06:03:20.705Z,12.33
2019-04-10T06:05:54.203Z,13.20
2019-04-10T06:08:26.474Z,12.88
2019-04-10T06:10:58.716Z,12.33
2019-04-10T06:13:30.960Z,12.10
2019-04-10T06:16:04.162Z,11.75
2019-04-10T06:18:37.469Z,11.75
2019-04-10T06:21:10.474Z,11.18
2019-04-10T06:23:43.435Z,11.30
2019-04-10T06:26:16.843Z,12.10
2019-04-10T06:28:50.478Z,12.03
2019-04-10T06:31:22.934Z,11.38
2019-04-10T06:33:56.296Z,11.80
2019-04-10T06:36:29.174Z,12.00
2019-04-10T06:39:02.553Z,11.65
2019-04-10T06:41:35.004Z,12.28
2019-04-10T06:44:07.760Z,10.93
2019-04-10T06:46:40.703Z,11.40
2019-04-10T06:49:14.488Z,11.45
2019-04-10T06:51:46.722Z,11.73
2019-04-10T06:54:18.985Z,12.68
2019-04-10T06:56:52.410Z,12.00
2019-04-10T06:59:25.832Z,12.20
2019-04-10T07:02:11.444Z,11.88
2019-04-10T07:04:43.069Z,12.03
2019-04-10T07:07:11.307Z,12.00
2019-04-10T07:09:40.464Z,12.37
2019-04-10T07:12:12.749Z,12.70
2019-04-10T07:14:48.299Z,14.28
2019-04-10T07:17:19.931Z,18.87
2019-04-10T07:19:52.206Z,14.80
2019-04-10T07:22:24.902Z,12.73
2019-04-10T07:24:58.429Z,17.52
2019-04-10T07:27:35.409Z,21.57
2019-04-10T07:30:07.631Z,14.93
2019-04-10T07:32:43.352Z,13.45
2019-04-10T07:35:16.724Z,18.60
2019-04-10T07:37:51.588Z,21.83
2019-04-10T07:40:22.819Z,12.80
2019-04-10T07:42:55.110Z,13.43
2019-04-10T07:45:28.375Z,12.93
2019-04-10T07:48:00.621Z,12.73
2019-04-10T07:50:32.852Z,14.43
2019-04-10T07:53:06.066Z,12.47
2019-04-10T07:55:38.416Z,12.88
2019-04-10T07:58:11.049Z,12.05
2019-04-10T08:00:43.474Z,11.90
2019-04-10T08:03:16.726Z,11.97
2019-04-10T08:05:50.193Z,12.33
2019-04-10T08:08:23.578Z,13.08
2019-04-10T08:10:55.936Z,12.15
2019-04-10T08:13:28.889Z,12.28
2019-04-10T08:16:01.250Z,12.53
2019-04-10T08:18:33.523Z,12.35
2019-04-10T08:21:07.008Z,11.83
2019-04-10T08:23:39.438Z,12.33
2019-04-10T08:26:12.164Z,11.03
2019-04-10T08:28:45.405Z,12.45
2019-04-10T08:31:18.982Z,11.30
2019-04-10T08:33:52.601Z,11.60
2019-04-10T08:36:25.572Z,10.88
2019-04-10T08:38:59.126Z,11.97
2019-04-10T08:41:31.530Z,11.83
2019-04-10T08:44:04.436Z,12.65
2019-04-10T08:46:37.719Z,11.30
2019-04-10T08:49:10.115Z,12.53
2019-04-10T08:51:43.644Z,12.15
2019-04-10T08:54:16.296Z,10.38
2019-04-10T08:56:49.189Z,12.23
2019-04-10T08:59:21.536Z,11.60
2019-04-10T09:01:53.788Z,11.45
2019-04-10T09:04:26.182Z,10.98
2019-04-10T09:07:01.316Z,11.30
2019-04-10T09:09:32.379Z,12.30
2019-04-10T09:12:05.230Z,12.03
2019-04-10T09:14:38.162Z,11.65
2019-04-10T09:17:11.200Z,11.25
2019-04-10T09:19:44.344Z,12.13
2019-04-10T09:22:16.710Z,11.20
2019-04-10T09:24:48.971Z,11.30
2019-04-10T09:27:21.335Z,11.00
2019-04-10T09:29:54.164Z,11.43
2019-04-10T09:32:26.619Z,11.33
2019-04-10T09:34:58.862Z,11.65
2019-04-10T09:37:31.531Z,11.33
2019-04-10T09:40:06.059Z,10.85
2019-04-10T09:42:38.327Z,9.75
2019-04-10T09:45:11.526Z,9.85
2019-04-10T09:47:43.934Z,11.48
2019-04-10T09:50:17.158Z,12.18
2019-04-10T09:52:50.343Z,10.08
2019-04-10T09:55:22.670Z,11.38
2019-04-10T09:57:54.988Z,10.60
2019-04-10T10:00:27.875Z,10.82
2019-04-10T10:03:01.427Z,10.95
2019-04-10T10:05:34.763Z,10.70
2019-04-10T10:08:08.062Z,9.68
2019-04-10T10:10:41.600Z,10.00
2019-04-10T10:13:15.052Z,10.05
2019-04-10T10:15:47.484Z,10.10
2019-04-10T10:18:19.751Z,10.98
2019-04-10T10:20:52.239Z,9.33
2019-04-10T10:23:25.594Z,9.83
2019-04-10T10:25:57.954Z,10.45
2019-04-10T10:28:31.179Z,9.60
2019-04-10T10:31:04.047Z,10.90
2019-04-10T10:33:37.472Z,9.80
2019-04-10T10:36:09.853Z,10.32
2019-04-10T10:38:43.278Z,10.03
2019-04-10T10:41:15.725Z,10.45
2019-04-10T10:43:48.876Z,10.35
2019-04-10T10:46:21.186Z,10.10
2019-04-10T10:48:53.838Z,11.07
2019-04-10T10:51:26.767Z,9.55
2019-04-10T10:54:01.416Z,9.88
2019-04-10T10:56:34.151Z,10.75
2019-04-10T10:59:06.532Z,12.25
2019-04-10T11:01:39.960Z,13.65
2019-04-10T11:04:13.021Z,15.28
2019-04-10T11:06:55.341Z,12.35
2019-04-10T11:09:19.733Z,10.30
2019-04-10T11:11:51.958Z,9.28
2019-04-10T11:14:25.269Z,14.20
2019-04-10T11:16:57.793Z,12.00
2019-04-10T11:19:31.168Z,16.67
2019-04-10T11:22:05.190Z,10.48
2019-04-10T11:24:38.251Z,8.70
2019-04-10T11:27:11.917Z,8.95
2019-04-10T11:29:45.380Z,8.73
2019-04-10T11:32:18.294Z,9.00
2019-04-10T11:34:50.756Z,8.73
2019-04-10T11:37:34.286Z,8.95
2019-04-10T11:39:58.440Z,9.18
2019-04-10T11:42:32.217Z,8.85
2019-04-10T11:45:06.718Z,8.53
2019-04-10T11:47:39.943Z,8.10
2019-04-10T11:50:16.815Z,7.58
2019-04-10T11:52:52.206Z,8.53
2019-04-10T11:55:25.114Z,8.65
2019-04-10T11:57:55.372Z,8.00
2019-04-10T12:00:30.800Z,7.80
2019-04-10T12:03:04.873Z,8.43
2019-04-10T12:05:41.162Z,8.78
2019-04-10T12:08:50.174Z,8.33
2019-04-10T12:13:21.942Z,8.90
2019-04-10T12:15:54.341Z,8.95
2019-04-10T12:18:26.792Z,8.78
2019-04-10T12:20:59.705Z,9.28
2019-04-10T12:23:32.668Z,9.05
2019-04-10T12:26:05.435Z,9.08
2019-04-10T12:28:38.182Z,9.45
2019-04-10T12:31:10.487Z,8.95
2019-04-10T12:33:42.799Z,9.60
2019-04-10T12:36:15.180Z,8.83
2019-04-10T12:38:47.808Z,8.65
2019-04-10T12:41:20.137Z,8.33
2019-04-10T12:43:53.460Z,9.85
2019-04-10T12:46:26.796Z,9.13
2019-04-10T12:51:25.587Z,9.43
2019-04-10T12:53:58.332Z,9.05
2019-04-10T12:56:30.910Z,8.70
2019-04-10T12:59:03.415Z,8.78
2019-04-10T13:01:36.581Z,9.20
2019-04-10T13:04:09.088Z,9.08
2019-04-10T13:06:42.238Z,8.20
2019-04-10T13:09:15.842Z,9.35
2019-04-10T13:11:48.989Z,8.15
2019-04-10T13:14:22.294Z,8.55
2019-04-10T13:16:54.528Z,8.95
2019-04-10T13:19:27.105Z,8.80
2019-04-10T13:21:59.978Z,9.10
2019-04-10T13:24:33.392Z,8.25
2019-04-10T13:27:06.174Z,8.43
2019-04-10T13:29:38.721Z,9.25
2019-04-10T13:32:11.748Z,8.18
2019-04-10T13:34:44.150Z,8.43
2019-04-10T13:37:16.448Z,7.72
2019-04-10T13:39:48.960Z,8.57
2019-04-10T13:42:21.460Z,8.80
2019-04-10T13:44:53.686Z,7.63
2019-04-10T13:47:25.919Z,8.55
2019-04-10T13:49:58.181Z,8.10
2019-04-10T13:52:30.502Z,8.18
2019-04-10T13:55:03.230Z,7.70
2019-04-10T13:57:35.539Z,7.70
2019-04-10T14:00:09.675Z,7.85
2019-04-10T14:02:41.931Z,7.00
2019-04-10T14:05:16.035Z,6.87
2019-04-10T14:07:49.337Z,7.40
2019-04-10T14:10:22.854Z,7.17
2019-04-10T14:12:56.413Z,7.37
2019-04-10T14:15:30.377Z,8.03
2019-04-10T14:18:03.178Z,7.03
2019-04-10T14:20:35.572Z,7.20
2019-04-10T14:23:10.372Z,6.97
2019-04-10T14:26:00.659Z,6.65
2019-04-10T14:28:35.351Z,7.05
2019-04-10T14:31:09.660Z,6.45
2019-04-10T14:33:42.157Z,7.08
2019-04-10T14:36:14.356Z,6.58
2019-04-10T14:38:47.406Z,6.75
2019-04-10T14:41:20.054Z,7.35
2019-04-10T14:43:53.564Z,6.70
2019-04-10T14:46:26.292Z,6.37
2019-04-10T14:48:58.626Z,6.92
2019-04-10T14:51:30.942Z,6.87
2019-04-10T14:54:03.774Z,6.37
2019-04-10T14:56:36.085Z,7.17
2019-04-10T14:59:09.293Z,7.30
2019-04-10T15:01:42.644Z,7.03
2019-04-10T15:04:15.148Z,6.72
2019-04-10T15:06:47.980Z,6.60
2019-04-10T15:09:25.719Z,6.60
2019-04-10T15:11:57.075Z,6.75
2019-04-10T15:14:29.870Z,6.92
2019-04-10T15:17:06.010Z,6.60
2019-04-10T15:19:37.833Z,6.67
2019-04-10T15:22:10.155Z,6.80
2019-04-10T15:24:42.754Z,5.83
2019-04-10T15:27:15.272Z,6.70
2019-04-10T15:29:47.663Z,6.65
2019-04-10T15:32:20.202Z,5.85
2019-04-10T15:34:53.617Z,5.87
2019-04-10T15:37:26.082Z,6.75
2019-04-10T15:40:10.039Z,6.17
2019-04-10T15:42:32.475Z,6.47
2019-04-10T15:45:06.152Z,5.37
2019-04-10T15:47:49.248Z,6.22
2019-04-10T15:50:13.935Z,6.03
2019-04-10T15:52:47.208Z,5.90
2019-04-10T15:55:19.598Z,6.00
2019-04-10T15:57:55.307Z,6.30
2019-04-10T16:00:25.889Z,6.47
2019-04-10T16:02:58.138Z,6.40
2019-04-10T16:05:31.443Z,5.17
2019-04-10T16:08:03.928Z,6.65
2019-04-10T16:10:37.954Z,6.50
2019-04-10T16:13:28.194Z,6.10
2019-04-10T16:16:03.085Z,6.15
2019-04-10T16:18:36.669Z,6.08
2019-04-10T16:21:10.349Z,6.45
2019-04-10T16:23:44.407Z,5.35
2019-04-10T16:26:16.928Z,6.35
2019-04-10T16:28:49.429Z,6.65
2019-04-10T16:31:21.726Z,8.33
2019-04-10T16:33:54.609Z,6.45
2019-04-10T16:36:27.829Z,6.72
2019-04-10T16:39:01.581Z,6.90
2019-04-10T16:41:33.866Z,7.05
2019-04-10T16:44:06.146Z,6.92
2019-04-10T16:46:40.395Z,6.78
2019-04-10T16:49:12.792Z,6.95
2019-04-10T16:51:45.983Z,7.50
2019-04-10T16:54:20.073Z,8.13
2019-04-10T16:56:52.239Z,8.10
2019-04-10T16:59:25.492Z,7.65
2019-04-10T17:01:57.863Z,8.30
2019-04-10T17:04:30.210Z,7.37
2019-04-10T17:07:03.003Z,7.28
2019-04-10T17:09:36.515Z,7.12
2019-04-10T17:12:09.466Z,7.40
2019-04-10T17:14:42.022Z,6.55
2019-04-10T17:17:14.541Z,7.47
2019-04-10T17:19:54.645Z,7.17
2019-04-10T17:22:30.773Z,9.43
2019-04-10T17:24:55.809Z,7.15
2019-04-10T17:27:28.326Z,10.38
2019-04-10T17:30:01.267Z,7.30
2019-04-10T17:32:33.694Z,7.15
2019-04-10T17:35:07.617Z,7.12
2019-04-10T17:37:40.266Z,7.20
2019-04-10T17:40:28.595Z,7.90
2019-04-10T17:42:48.615Z,8.33
2019-04-10T17:45:20.870Z,7.90
2019-04-10T17:47:53.608Z,8.05
2019-04-10T17:50:27.971Z,8.08
2019-04-10T17:53:00.975Z,7.55
2019-04-10T17:55:33.704Z,7.55
2019-04-10T17:58:06.072Z,8.08
2019-04-10T18:00:40.045Z,7.35
2019-04-10T18:03:14.108Z,7.37
2019-04-10T18:05:46.876Z,8.60
2019-04-10T18:08:24.180Z,8.20
2019-04-10T18:10:57.345Z,7.87
2019-04-10T18:13:31.001Z,7.85
2019-04-10T18:16:04.287Z,7.58
2019-04-10T18:18:37.858Z,7.78
2019-04-10T18:21:10.635Z,7.45
2019-04-10T18:23:43.915Z,7.78
2019-04-10T18:26:20.593Z,7.85
2019-04-10T18:28:52.288Z,8.18
2019-04-10T18:31:26.473Z,7.28
2019-04-10T18:33:58.787Z,7.97
2019-04-10T18:36:31.943Z,7.58
2019-04-10T18:39:06.151Z,8.05
2019-04-10T18:41:40.031Z,7.67
2019-04-10T18:44:12.961Z,7.05
2019-04-10T18:46:45.221Z,7.75
2019-04-10T18:49:17.474Z,8.10
2019-04-10T18:51:50.044Z,7.03
2019-04-10T18:54:22.820Z,6.97
2019-04-10T18:56:55.683Z,7.25
2019-04-10T18:59:29.644Z,7.83
2019-04-10T19:02:20.003Z,7.70
2019-04-10T19:04:55.001Z,7.55
2019-04-10T19:07:27.760Z,7.83
2019-04-10T19:10:00.031Z,7.92
2019-04-10T19:12:32.758Z,8.55
2019-04-10T19:15:06.531Z,8.05
2019-04-10T19:17:40.246Z,7.95
2019-04-10T19:20:13.667Z,7.60
2019-04-10T19:22:45.918Z,7.22
2019-04-10T19:25:19.219Z,7.85
2019-04-10T19:27:52.638Z,7.30
2019-04-10T19:30:35.410Z,7.42
2019-04-10T19:33:08.023Z,6.85
2019-04-10T19:35:41.372Z,7.53
2019-04-10T19:38:13.684Z,8.05
2019-04-10T19:40:45.951Z,7.37
2019-04-10T19:43:18.181Z,7.47
2019-04-10T19:45:52.199Z,7.50
2019-04-10T19:48:25.482Z,7.40
2019-04-10T19:50:57.844Z,7.40
2019-04-10T19:53:30.066Z,6.70
2019-04-10T19:56:02.631Z,6.95
2019-04-10T19:58:35.100Z,7.47
2019-04-10T20:01:08.664Z,7.50
2019-04-10T20:03:40.927Z,7.67
2019-04-10T20:06:14.215Z,7.75
2019-04-10T20:08:46.623Z,7.37
2019-04-10T20:11:26.621Z,7.80
2019-04-10T20:13:52.970Z,7.47
2019-04-10T20:16:25.241Z,7.67
2019-04-10T20:18:57.483Z,7.75
2019-04-10T20:21:30.079Z,8.08
2019-04-10T20:24:02.760Z,8.00
2019-04-10T20:26:35.049Z,8.15
2019-04-10T20:29:07.675Z,8.38
2019-04-10T20:31:40.027Z,7.97
2019-04-10T20:34:13.529Z,7.75
2019-04-10T20:36:46.976Z,7.30
2019-04-10T20:39:19.505Z,7.83
2019-04-10T20:41:54.790Z,7.50
2019-04-10T20:44:26.904Z,7.83
2019-04-10T20:47:00.382Z,7.90
2019-04-10T20:49:32.966Z,7.42
2019-04-10T20:52:06.153Z,7.65
2019-04-10T20:54:39.180Z,7.92
2019-04-10T20:57:11.531Z,8.20
2019-04-10T20:59:44.733Z,7.78
2019-04-10T21:02:18.035Z,8.20
2019-04-10T21:04:56.627Z,7.92
2019-04-10T21:07:25.564Z,7.45
2019-04-10T21:09:58.723Z,7.85
2019-04-10T21:12:32.161Z,7.28
2019-04-10T21:15:09.028Z,7.08
2019-04-10T21:17:42.425Z,7.67
2019-04-10T21:20:15.848Z,7.28
2019-04-10T21:22:49.243Z,7.12
2019-04-10T21:25:21.592Z,7.13
2019-04-10T21:27:55.033Z,7.40
2019-04-10T21:30:29.423Z,7.10
2019-04-10T21:33:06.301Z,7.58
2019-04-10T21:35:41.445Z,7.40
2019-04-10T21:38:13.756Z,7.23
2019-04-10T21:40:45.988Z,7.35
2019-04-10T21:43:18.560Z,7.12
2019-04-10T21:45:52.243Z,7.42
2019-04-10T21:48:24.658Z,7.20
2019-04-10T21:50:58.096Z,6.67
2019-04-10T21:53:31.749Z,7.00
2019-04-10T21:56:04.605Z,7.33
2019-04-10T21:58:36.937Z,7.37
2019-04-10T22:01:09.835Z,6.83
2019-04-10T22:03:43.461Z,6.70
2019-04-10T22:06:17.721Z,7.12
2019-04-10T22:08:54.497Z,6.83
2019-04-10T22:11:28.728Z,7.47
2019-04-10T22:14:02.404Z,7.53
2019-04-10T22:16:35.732Z,7.17
2019-04-10T22:19:08.245Z,7.30
2019-04-10T22:21:40.463Z,6.72
2019-04-10T22:24:13.661Z,7.45
2019-04-10T22:26:46.786Z,7.40
2019-04-10T22:29:19.572Z,7.05
2019-04-10T22:31:51.815Z,6.97
2019-04-10T22:34:24.075Z,7.50
2019-04-10T22:36:57.895Z,6.95
2019-04-10T22:39:30.166Z,6.97
2019-04-10T22:42:03.356Z,6.58
2019-04-10T22:44:41.993Z,7.25
2019-04-10T22:47:09.672Z,6.95
2019-04-10T22:49:42.762Z,6.78
2019-04-10T22:52:15.472Z,7.53
2019-04-10T22:54:47.763Z,7.40
2019-04-10T22:57:21.048Z,7.40
2019-04-10T22:59:53.336Z,6.40
2019-04-10T23:02:25.627Z,7.22
2019-04-10T23:04:57.922Z,7.10
2019-04-10T23:07:30.242Z,7.17
2019-04-10T23:10:02.653Z,6.87
2019-04-10T23:12:34.898Z,6.47
2019-04-10T23:15:09.183Z,6.80
2019-04-10T23:17:41.479Z,7.30
2019-04-10T23:20:14.363Z,7.05
2019-04-10T23:22:48.516Z,6.92
2019-04-10T23:25:20.850Z,6.47
2019-04-10T23:27:55.165Z,6.78
2019-04-10T23:30:27.052Z,6.62
2019-04-10T23:32:59.655Z,6.58
2019-04-10T23:35:31.939Z,6.60
2019-04-10T23:38:04.283Z,6.42
2019-04-10T23:40:36.865Z,6.62
2019-04-10T23:43:13.556Z,6.75
2019-04-10T23:45:44.033Z,7.30
2019-04-10T23:48:17.024Z,6.80
2019-04-10T23:50:50.243Z,7.62
2019-04-10T23:53:22.645Z,7.10
2019-04-10T23:55:54.947Z,7.00
2019-04-10T23:58:27.183Z,7.05
